sensor_id;sensor_type;location;lat;lon;timestamp;temperature;humidity
76239;SHT30;65043;48.392;-4.472;2023-01-24T00:00:45;6.96;69.01
76239;SHT30;65043;48.392;-4.472;2023-01-24T00:03:10;6.99;68.91
76239;SHT30;65043;48.392;-4.472;2023-01-24T00:05:39;6.96;68.84
76239;SHT30;65043;48.392;-4.472;2023-01-24T00:08:05;6.99;68.97
76239;SHT30;65043;48.392;-4.472;2023-01-24T00:10:30;6.99;68.87
76239;SHT30;65043;48.392;-4.472;2023-01-24T00:12:57;7.00;69.27
76239;SHT30;65043;48.392;-4.472;2023-01-24T00:15:22;7.01;69.21
76239;SHT30;65043;48.392;-4.472;2023-01-24T00:17:47;7.00;69.11
76239;SHT30;65043;48.392;-4.472;2023-01-24T00:20:13;7.03;69.11
76239;SHT30;65043;48.392;-4.472;2023-01-24T00:22:38;7.08;69.89
76239;SHT30;65043;48.392;-4.472;2023-01-24T00:25:04;7.08;69.16
76239;SHT30;65043;48.392;-4.472;2023-01-24T00:27:29;7.08;69.08
76239;SHT30;65043;48.392;-4.472;2023-01-24T00:29:56;7.07;69.78
76239;SHT30;65043;48.392;-4.472;2023-01-24T00:32:22;7.07;69.00
76239;SHT30;65043;48.392;-4.472;2023-01-24T00:34:47;7.08;69.08
76239;SHT30;65043;48.392;-4.472;2023-01-24T00:37:13;7.08;69.33
76239;SHT30;65043;48.392;-4.472;2023-01-24T00:39:38;7.08;69.68
76239;SHT30;65043;48.392;-4.472;2023-01-24T00:42:03;7.10;70.08
76239;SHT30;65043;48.392;-4.472;2023-01-24T00:44:29;7.13;69.09
76239;SHT30;65043;48.392;-4.472;2023-01-24T00:46:54;7.11;69.44
76239;SHT30;65043;48.392;-4.472;2023-01-24T00:49:20;7.11;69.47
76239;SHT30;65043;48.392;-4.472;2023-01-24T00:51:45;7.13;69.44
76239;SHT30;65043;48.392;-4.472;2023-01-24T00:54:11;7.11;69.85
76239;SHT30;65043;48.392;-4.472;2023-01-24T00:56:36;7.14;69.51
76239;SHT30;65043;48.392;-4.472;2023-01-24T00:59:02;7.14;69.16
76239;SHT30;65043;48.392;-4.472;2023-01-24T01:01:27;7.16;69.34
76239;SHT30;65043;48.392;-4.472;2023-01-24T01:03:56;7.14;69.54
76239;SHT30;65043;48.392;-4.472;2023-01-24T01:06:22;7.14;69.43
76239;SHT30;65043;48.392;-4.472;2023-01-24T01:08:48;7.16;69.49
76239;SHT30;65043;48.392;-4.472;2023-01-24T01:11:13;7.16;69.55
76239;SHT30;65043;48.392;-4.472;2023-01-24T01:13:39;7.17;69.48
76239;SHT30;65043;48.392;-4.472;2023-01-24T01:16:07;7.17;69.65
76239;SHT30;65043;48.392;-4.472;2023-01-24T01:18:33;7.18;69.43
76239;SHT30;65043;48.392;-4.472;2023-01-24T01:20:59;7.18;69.70
76239;SHT30;65043;48.392;-4.472;2023-01-24T01:23:25;7.21;69.71
76239;SHT30;65043;48.392;-4.472;2023-01-24T01:25:50;7.20;69.45
76239;SHT30;65043;48.392;-4.472;2023-01-24T01:28:16;7.20;69.57
76239;SHT30;65043;48.392;-4.472;2023-01-24T01:30:41;7.21;69.67
76239;SHT30;65043;48.392;-4.472;2023-01-24T01:33:07;7.18;69.80
76239;SHT30;65043;48.392;-4.472;2023-01-24T01:35:32;7.21;69.86
76239;SHT30;65043;48.392;-4.472;2023-01-24T01:37:57;7.23;69.66
76239;SHT30;65043;48.392;-4.472;2023-01-24T01:40:23;7.27;69.78
76239;SHT30;65043;48.392;-4.472;2023-01-24T01:42:50;7.24;69.57
76239;SHT30;65043;48.392;-4.472;2023-01-24T01:45:53;7.25;69.34
76239;SHT30;65043;48.392;-4.472;2023-01-24T01:50:52;7.24;69.43
76239;SHT30;65043;48.392;-4.472;2023-01-24T01:53:21;7.27;69.58
76239;SHT30;65043;48.392;-4.472;2023-01-24T01:55:51;7.25;69.58
76239;SHT30;65043;48.392;-4.472;2023-01-24T01:58:18;7.28;69.45
76239;SHT30;65043;48.392;-4.472;2023-01-24T02:00:44;7.31;69.85
76239;SHT30;65043;48.392;-4.472;2023-01-24T02:03:18;7.34;69.35
76239;SHT30;65043;48.392;-4.472;2023-01-24T02:06:04;7.31;69.83
76239;SHT30;65043;48.392;-4.472;2023-01-24T02:08:30;7.30;70.04
76239;SHT30;65043;48.392;-4.472;2023-01-24T02:10:57;7.35;70.27
76239;SHT30;65043;48.392;-4.472;2023-01-24T02:13:41;7.35;69.33
76239;SHT30;65043;48.392;-4.472;2023-01-24T02:16:09;7.32;69.40
76239;SHT30;65043;48.392;-4.472;2023-01-24T02:18:37;7.31;69.37
76239;SHT30;65043;48.392;-4.472;2023-01-24T02:21:06;7.37;69.39
76239;SHT30;65043;48.392;-4.472;2023-01-24T02:24:06;7.37;69.67
76239;SHT30;65043;48.392;-4.472;2023-01-24T02:26:32;7.40;69.39
76239;SHT30;65043;48.392;-4.472;2023-01-24T02:29:01;7.43;69.39
76239;SHT30;65043;48.392;-4.472;2023-01-24T02:31:27;7.41;69.47
76239;SHT30;65043;48.392;-4.472;2023-01-24T02:33:53;7.40;69.27
76239;SHT30;65043;48.392;-4.472;2023-01-24T02:36:30;7.43;69.18
76239;SHT30;65043;48.392;-4.472;2023-01-24T02:39:26;7.43;69.13
76239;SHT30;65043;48.392;-4.472;2023-01-24T02:42:11;7.43;69.32
76239;SHT30;65043;48.392;-4.472;2023-01-24T02:44:42;7.41;69.35
76239;SHT30;65043;48.392;-4.472;2023-01-24T02:47:10;7.44;70.19
76239;SHT30;65043;48.392;-4.472;2023-01-24T02:49:36;7.47;69.61
76239;SHT30;65043;48.392;-4.472;2023-01-24T02:52:01;7.51;70.15
76239;SHT30;65043;48.392;-4.472;2023-01-24T02:54:44;7.55;69.52
76239;SHT30;65043;48.392;-4.472;2023-01-24T02:57:10;7.58;69.28
76239;SHT30;65043;48.392;-4.472;2023-01-24T02:59:56;7.59;69.39
76239;SHT30;65043;48.392;-4.472;2023-01-24T03:02:22;7.59;69.80
76239;SHT30;65043;48.392;-4.472;2023-01-24T03:04:47;7.61;69.63
76239;SHT30;65043;48.392;-4.472;2023-01-24T03:07:13;7.56;69.87
76239;SHT30;65043;48.392;-4.472;2023-01-24T03:09:38;7.56;69.59
76239;SHT30;65043;48.392;-4.472;2023-01-24T03:12:11;7.58;69.10
76239;SHT30;65043;48.392;-4.472;2023-01-24T03:14:58;7.59;69.45
76239;SHT30;65043;48.392;-4.472;2023-01-24T03:17:43;7.61;69.76
76239;SHT30;65043;48.392;-4.472;2023-01-24T03:20:27;7.59;69.23
76239;SHT30;65043;48.392;-4.472;2023-01-24T03:23:11;7.59;69.24
76239;SHT30;65043;48.392;-4.472;2023-01-24T03:25:56;7.56;69.77
76239;SHT30;65043;48.392;-4.472;2023-01-24T03:28:41;7.66;69.27
76239;SHT30;65043;48.392;-4.472;2023-01-24T03:31:26;7.68;69.21
76239;SHT30;65043;48.392;-4.472;2023-01-24T03:34:10;7.74;69.57
76239;SHT30;65043;48.392;-4.472;2023-01-24T03:36:54;7.72;68.73
76239;SHT30;65043;48.392;-4.472;2023-01-24T03:39:20;7.71;68.68
76239;SHT30;65043;48.392;-4.472;2023-01-24T03:42:04;7.66;68.83
76239;SHT30;65043;48.392;-4.472;2023-01-24T03:44:29;7.66;68.93
76239;SHT30;65043;48.392;-4.472;2023-01-24T03:46:55;7.66;68.79
76239;SHT30;65043;48.392;-4.472;2023-01-24T03:49:20;7.65;68.88
76239;SHT30;65043;48.392;-4.472;2023-01-24T03:52:04;7.65;68.73
76239;SHT30;65043;48.392;-4.472;2023-01-24T03:54:48;7.66;68.88
76239;SHT30;65043;48.392;-4.472;2023-01-24T03:57:13;7.65;68.90
76239;SHT30;65043;48.392;-4.472;2023-01-24T03:59:39;7.62;69.17
76239;SHT30;65043;48.392;-4.472;2023-01-24T04:02:04;7.59;69.76
76239;SHT30;65043;48.392;-4.472;2023-01-24T04:04:29;7.61;69.55
76239;SHT30;65043;48.392;-4.472;2023-01-24T04:07:15;7.64;69.94
76239;SHT30;65043;48.392;-4.472;2023-01-24T04:09:40;7.68;69.12
76239;SHT30;65043;48.392;-4.472;2023-01-24T04:12:05;7.69;69.02
76239;SHT30;65043;48.392;-4.472;2023-01-24T04:14:31;7.72;69.30
76239;SHT30;65043;48.392;-4.472;2023-01-24T04:16:56;7.69;68.83
76239;SHT30;65043;48.392;-4.472;2023-01-24T04:19:21;7.68;69.34
76239;SHT30;65043;48.392;-4.472;2023-01-24T04:21:47;7.69;69.65
76239;SHT30;65043;48.392;-4.472;2023-01-24T04:24:12;7.68;69.32
76239;SHT30;65043;48.392;-4.472;2023-01-24T04:26:38;7.65;69.18
76239;SHT30;65043;48.392;-4.472;2023-01-24T04:29:03;7.65;69.30
76239;SHT30;65043;48.392;-4.472;2023-01-24T04:31:28;7.68;69.80
76239;SHT30;65043;48.392;-4.472;2023-01-24T04:33:54;7.65;69.34
76239;SHT30;65043;48.392;-4.472;2023-01-24T04:36:19;7.65;69.36
76239;SHT30;65043;48.392;-4.472;2023-01-24T04:38:45;7.72;69.27
76239;SHT30;65043;48.392;-4.472;2023-01-24T04:41:10;7.66;69.43
76239;SHT30;65043;48.392;-4.472;2023-01-24T04:43:39;7.66;69.27
76239;SHT30;65043;48.392;-4.472;2023-01-24T04:46:05;7.65;69.50
76239;SHT30;65043;48.392;-4.472;2023-01-24T04:48:31;7.62;69.42
76239;SHT30;65043;48.392;-4.472;2023-01-24T04:51:00;7.62;69.36
76239;SHT30;65043;48.392;-4.472;2023-01-24T04:53:26;7.61;69.49
76239;SHT30;65043;48.392;-4.472;2023-01-24T04:55:52;7.64;69.90
76239;SHT30;65043;48.392;-4.472;2023-01-24T04:58:17;7.68;69.32
76239;SHT30;65043;48.392;-4.472;2023-01-24T05:00:43;7.68;69.75
76239;SHT30;65043;48.392;-4.472;2023-01-24T05:03:08;7.61;69.51
76239;SHT30;65043;48.392;-4.472;2023-01-24T05:05:34;7.62;69.69
76239;SHT30;65043;48.392;-4.472;2023-01-24T05:07:59;7.62;69.50
76239;SHT30;65043;48.392;-4.472;2023-01-24T05:10:25;7.62;69.58
76239;SHT30;65043;48.392;-4.472;2023-01-24T05:12:50;7.61;69.41
76239;SHT30;65043;48.392;-4.472;2023-01-24T05:15:16;7.62;69.46
76239;SHT30;65043;48.392;-4.472;2023-01-24T05:17:43;7.64;69.70
76239;SHT30;65043;48.392;-4.472;2023-01-24T05:20:09;7.62;69.74
76239;SHT30;65043;48.392;-4.472;2023-01-24T05:22:35;7.64;69.59
76239;SHT30;65043;48.392;-4.472;2023-01-24T05:25:00;7.62;69.59
76239;SHT30;65043;48.392;-4.472;2023-01-24T05:27:26;7.62;69.42
76239;SHT30;65043;48.392;-4.472;2023-01-24T05:29:51;7.59;69.28
76239;SHT30;65043;48.392;-4.472;2023-01-24T05:32:16;7.56;69.48
76239;SHT30;65043;48.392;-4.472;2023-01-24T05:34:42;7.59;69.45
76239;SHT30;65043;48.392;-4.472;2023-01-24T05:37:07;7.59;69.40
76239;SHT30;65043;48.392;-4.472;2023-01-24T05:39:33;7.58;69.34
76239;SHT30;65043;48.392;-4.472;2023-01-24T05:41:59;7.55;69.53
76239;SHT30;65043;48.392;-4.472;2023-01-24T05:44:24;7.55;69.53
76239;SHT30;65043;48.392;-4.472;2023-01-24T05:46:50;7.52;69.74
76239;SHT30;65043;48.392;-4.472;2023-01-24T05:49:15;7.51;69.76
76239;SHT30;65043;48.392;-4.472;2023-01-24T05:51:41;7.48;69.76
76239;SHT30;65043;48.392;-4.472;2023-01-24T05:54:06;7.48;69.74
76239;SHT30;65043;48.392;-4.472;2023-01-24T05:56:31;7.50;69.87
76239;SHT30;65043;48.392;-4.472;2023-01-24T05:58:57;7.48;69.67
76239;SHT30;65043;48.392;-4.472;2023-01-24T06:01:22;7.48;69.82
76239;SHT30;65043;48.392;-4.472;2023-01-24T06:03:51;7.50;69.82
76239;SHT30;65043;48.392;-4.472;2023-01-24T06:06:18;7.48;69.73
76239;SHT30;65043;48.392;-4.472;2023-01-24T06:08:44;7.47;69.77
76239;SHT30;65043;48.392;-4.472;2023-01-24T06:11:18;7.50;69.81
76239;SHT30;65043;48.392;-4.472;2023-01-24T06:13:45;7.48;69.85
76239;SHT30;65043;48.392;-4.472;2023-01-24T06:16:22;7.45;69.92
76239;SHT30;65043;48.392;-4.472;2023-01-24T06:18:49;7.43;69.70
76239;SHT30;65043;48.392;-4.472;2023-01-24T06:21:43;7.43;69.81
76239;SHT30;65043;48.392;-4.472;2023-01-24T06:26:43;7.47;69.83
76239;SHT30;65043;48.392;-4.472;2023-01-24T06:29:10;7.47;69.99
76239;SHT30;65043;48.392;-4.472;2023-01-24T06:39:33;7.44;69.98
76239;SHT30;65043;48.392;-4.472;2023-01-24T06:41:59;7.44;69.95
76239;SHT30;65043;48.392;-4.472;2023-01-24T06:44:25;7.44;70.04
76239;SHT30;65043;48.392;-4.472;2023-01-24T06:46:51;7.44;69.97
76239;SHT30;65043;48.392;-4.472;2023-01-24T06:49:16;7.44;70.04
76239;SHT30;65043;48.392;-4.472;2023-01-24T06:51:42;7.41;70.08
76239;SHT30;65043;48.392;-4.472;2023-01-24T06:54:08;7.43;70.08
76239;SHT30;65043;48.392;-4.472;2023-01-24T06:56:33;7.43;69.99
76239;SHT30;65043;48.392;-4.472;2023-01-24T06:58:59;7.43;70.08
76239;SHT30;65043;48.392;-4.472;2023-01-24T07:01:24;7.43;70.22
76239;SHT30;65043;48.392;-4.472;2023-01-24T07:03:49;7.38;70.09
76239;SHT30;65043;48.392;-4.472;2023-01-24T07:06:15;7.38;70.19
76239;SHT30;65043;48.392;-4.472;2023-01-24T07:08:41;7.38;70.38
76239;SHT30;65043;48.392;-4.472;2023-01-24T07:11:06;7.40;70.30
76239;SHT30;65043;48.392;-4.472;2023-01-24T07:13:32;7.40;70.22
76239;SHT30;65043;48.392;-4.472;2023-01-24T07:16:01;7.38;70.26
76239;SHT30;65043;48.392;-4.472;2023-01-24T07:18:27;7.38;70.35
76239;SHT30;65043;48.392;-4.472;2023-01-24T07:20:52;7.35;70.34
76239;SHT30;65043;48.392;-4.472;2023-01-24T07:23:23;7.35;70.52
76239;SHT30;65043;48.392;-4.472;2023-01-24T07:25:51;7.31;70.49
76239;SHT30;65043;48.392;-4.472;2023-01-24T07:28:17;7.32;70.55
76239;SHT30;65043;48.392;-4.472;2023-01-24T07:30:43;7.31;70.56
76239;SHT30;65043;48.392;-4.472;2023-01-24T07:33:11;7.31;70.48
76239;SHT30;65043;48.392;-4.472;2023-01-24T07:35:37;7.34;70.53
76239;SHT30;65043;48.392;-4.472;2023-01-24T07:38:02;7.32;70.52
76239;SHT30;65043;48.392;-4.472;2023-01-24T07:40:28;7.32;70.46
76239;SHT30;65043;48.392;-4.472;2023-01-24T07:42:53;7.34;70.62
76239;SHT30;65043;48.392;-4.472;2023-01-24T07:45:19;7.34;70.60
76239;SHT30;65043;48.392;-4.472;2023-01-24T07:47:45;7.35;70.48
76239;SHT30;65043;48.392;-4.472;2023-01-24T07:50:11;7.35;70.62
76239;SHT30;65043;48.392;-4.472;2023-01-24T07:52:36;7.35;70.57
76239;SHT30;65043;48.392;-4.472;2023-01-24T07:55:01;7.37;70.51
76239;SHT30;65043;48.392;-4.472;2023-01-24T07:57:27;7.34;70.53
76239;SHT30;65043;48.392;-4.472;2023-01-24T07:59:52;7.34;70.63
76239;SHT30;65043;48.392;-4.472;2023-01-24T08:02:18;7.35;70.64
76239;SHT30;65043;48.392;-4.472;2023-01-24T08:04:43;7.37;70.68
76239;SHT30;65043;48.392;-4.472;2023-01-24T08:07:08;7.37;70.66
76239;SHT30;65043;48.392;-4.472;2023-01-24T08:09:45;7.35;70.67
76239;SHT30;65043;48.392;-4.472;2023-01-24T08:12:10;7.38;70.65
76239;SHT30;65043;48.392;-4.472;2023-01-24T08:14:36;7.38;70.75
76239;SHT30;65043;48.392;-4.472;2023-01-24T08:17:01;7.38;70.65
76239;SHT30;65043;48.392;-4.472;2023-01-24T08:19:27;7.41;70.56
76239;SHT30;65043;48.392;-4.472;2023-01-24T08:21:52;7.43;70.72
76239;SHT30;65043;48.392;-4.472;2023-01-24T08:24:18;7.43;70.69
76239;SHT30;65043;48.392;-4.472;2023-01-24T08:26:43;7.44;70.75
76239;SHT30;65043;48.392;-4.472;2023-01-24T08:29:11;7.44;70.78
76239;SHT30;65043;48.392;-4.472;2023-01-24T08:31:37;7.45;70.75
76239;SHT30;65043;48.392;-4.472;2023-01-24T08:34:02;7.50;70.71
76239;SHT30;65043;48.392;-4.472;2023-01-24T08:36:28;7.51;70.79
76239;SHT30;65043;48.392;-4.472;2023-01-24T08:38:53;7.51;70.65
76239;SHT30;65043;48.392;-4.472;2023-01-24T08:41:19;7.51;70.53
76239;SHT30;65043;48.392;-4.472;2023-01-24T08:43:44;7.52;70.62
76239;SHT30;65043;48.392;-4.472;2023-01-24T08:46:10;7.54;70.64
76239;SHT30;65043;48.392;-4.472;2023-01-24T08:48:35;7.52;70.63
76239;SHT30;65043;48.392;-4.472;2023-01-24T08:51:05;7.59;71.02
76239;SHT30;65043;48.392;-4.472;2023-01-24T08:53:32;7.64;70.95
76239;SHT30;65043;48.392;-4.472;2023-01-24T08:55:57;7.66;71.03
76239;SHT30;65043;48.392;-4.472;2023-01-24T08:58:22;7.72;70.51
76239;SHT30;65043;48.392;-4.472;2023-01-24T09:00:48;7.75;70.73
76239;SHT30;65043;48.392;-4.472;2023-01-24T09:03:16;7.75;70.72
76239;SHT30;65043;48.392;-4.472;2023-01-24T09:05:41;7.76;70.81
76239;SHT30;65043;48.392;-4.472;2023-01-24T09:08:07;7.81;70.21
76239;SHT30;65043;48.392;-4.472;2023-01-24T09:10:33;7.81;70.23
76239;SHT30;65043;48.392;-4.472;2023-01-24T09:12:58;7.85;70.48
76239;SHT30;65043;48.392;-4.472;2023-01-24T09:15:25;7.85;70.21
76239;SHT30;65043;48.392;-4.472;2023-01-24T09:17:50;7.86;70.86
76239;SHT30;65043;48.392;-4.472;2023-01-24T09:20:16;7.95;70.85
76239;SHT30;65043;48.392;-4.472;2023-01-24T09:22:42;8.00;70.68
76239;SHT30;65043;48.392;-4.472;2023-01-24T09:25:08;8.05;70.26
76239;SHT30;65043;48.392;-4.472;2023-01-24T09:27:36;8.06;70.13
76239;SHT30;65043;48.392;-4.472;2023-01-24T09:30:03;8.05;70.31
76239;SHT30;65043;48.392;-4.472;2023-01-24T09:32:30;8.07;70.14
76239;SHT30;65043;48.392;-4.472;2023-01-24T09:34:55;8.14;70.06
76239;SHT30;65043;48.392;-4.472;2023-01-24T09:37:22;8.20;70.19
76239;SHT30;65043;48.392;-4.472;2023-01-24T09:39:47;8.26;70.05
76239;SHT30;65043;48.392;-4.472;2023-01-24T09:42:22;8.29;69.95
76239;SHT30;65043;48.392;-4.472;2023-01-24T09:45:12;8.33;70.06
76239;SHT30;65043;48.392;-4.472;2023-01-24T09:47:54;8.36;69.83
76239;SHT30;65043;48.392;-4.472;2023-01-24T09:50:45;8.40;69.86
76239;SHT30;65043;48.392;-4.472;2023-01-24T09:53:23;8.48;69.81
76239;SHT30;65043;48.392;-4.472;2023-01-24T09:55:49;8.53;69.75
76239;SHT30;65043;48.392;-4.472;2023-01-24T09:58:41;8.55;69.90
76239;SHT30;65043;48.392;-4.472;2023-01-24T10:01:12;8.64;69.66
76239;SHT30;65043;48.392;-4.472;2023-01-24T10:03:39;8.65;69.74
76239;SHT30;65043;48.392;-4.472;2023-01-24T10:06:21;8.67;69.68
76239;SHT30;65043;48.392;-4.472;2023-01-24T10:09:22;8.71;69.59
76239;SHT30;65043;48.392;-4.472;2023-01-24T10:12:06;8.75;69.49
76239;SHT30;65043;48.392;-4.472;2023-01-24T10:15:29;8.82;69.46
76239;SHT30;65043;48.392;-4.472;2023-01-24T10:17:59;8.84;69.28
76239;SHT30;65043;48.392;-4.472;2023-01-24T10:25:56;8.91;69.33
76239;SHT30;65043;48.392;-4.472;2023-01-24T10:28:28;8.95;69.17
76239;SHT30;65043;48.392;-4.472;2023-01-24T10:31:00;8.98;69.33
76239;SHT30;65043;48.392;-4.472;2023-01-24T10:33:31;9.02;69.15
76239;SHT30;65043;48.392;-4.472;2023-01-24T10:36:08;9.05;69.07
76239;SHT30;65043;48.392;-4.472;2023-01-24T10:38:35;9.06;69.06
76239;SHT30;65043;48.392;-4.472;2023-01-24T10:41:15;9.08;69.10
76239;SHT30;65043;48.392;-4.472;2023-01-24T10:43:44;9.11;68.98
76239;SHT30;65043;48.392;-4.472;2023-01-24T10:48:53;9.16;68.71
76239;SHT30;65043;48.392;-4.472;2023-01-24T10:51:22;9.18;68.57
76239;SHT30;65043;48.392;-4.472;2023-01-24T10:53:48;9.20;68.56
76239;SHT30;65043;48.392;-4.472;2023-01-24T10:56:17;9.22;68.63
76239;SHT30;65043;48.392;-4.472;2023-01-24T10:59:12;9.25;68.69
76239;SHT30;65043;48.392;-4.472;2023-01-24T11:01:44;9.29;68.62
76239;SHT30;65043;48.392;-4.472;2023-01-24T11:04:22;9.29;68.61
76239;SHT30;65043;48.392;-4.472;2023-01-24T11:06:50;9.30;68.52
76239;SHT30;65043;48.392;-4.472;2023-01-24T11:09:18;9.29;68.66
76239;SHT30;65043;48.392;-4.472;2023-01-24T11:11:53;9.30;68.62
76239;SHT30;65043;48.392;-4.472;2023-01-24T11:14:22;9.33;68.62
76239;SHT30;65043;48.392;-4.472;2023-01-24T11:16:53;9.35;68.49
76239;SHT30;65043;48.392;-4.472;2023-01-24T11:19:34;9.27;68.08
76239;SHT30;65043;48.392;-4.472;2023-01-24T11:22:02;9.26;68.56
76239;SHT30;65043;48.392;-4.472;2023-01-24T11:24:29;9.27;68.71
76239;SHT30;65043;48.392;-4.472;2023-01-24T11:27:13;9.32;68.76
76239;SHT30;65043;48.392;-4.472;2023-01-24T11:29:39;9.35;68.98
76239;SHT30;65043;48.392;-4.472;2023-01-24T11:35:11;9.43;68.55
76239;SHT30;65043;48.392;-4.472;2023-01-24T11:54:33;9.40;67.76
76239;SHT30;65043;48.392;-4.472;2023-01-24T12:02:51;9.43;67.36
76239;SHT30;65043;48.392;-4.472;2023-01-24T12:08:23;9.46;67.16
76239;SHT30;65043;48.392;-4.472;2023-01-24T12:11:08;9.50;66.98
76239;SHT30;65043;48.392;-4.472;2023-01-24T12:13:47;9.53;67.09
76239;SHT30;65043;48.392;-4.472;2023-01-24T12:21:26;9.56;66.60
76239;SHT30;65043;48.392;-4.472;2023-01-24T12:24:24;9.48;67.24
76239;SHT30;65043;48.392;-4.472;2023-01-24T12:26:54;9.54;67.38
76239;SHT30;65043;48.392;-4.472;2023-01-24T12:29:34;9.60;67.28
76239;SHT30;65043;48.392;-4.472;2023-01-24T12:32:10;9.63;67.24
76239;SHT30;65043;48.392;-4.472;2023-01-24T12:35:08;9.66;66.98
76239;SHT30;65043;48.392;-4.472;2023-01-24T12:37:45;9.66;67.05
76239;SHT30;65043;48.392;-4.472;2023-01-24T12:45:18;9.69;66.90
76239;SHT30;65043;48.392;-4.472;2023-01-24T12:47:51;9.66;67.07
76239;SHT30;65043;48.392;-4.472;2023-01-24T12:53:21;9.61;66.91
76239;SHT30;65043;48.392;-4.472;2023-01-24T12:56:00;9.61;66.74
76239;SHT30;65043;48.392;-4.472;2023-01-24T12:58:41;9.61;66.90
76239;SHT30;65043;48.392;-4.472;2023-01-24T13:12:23;9.80;66.02
76239;SHT30;65043;48.392;-4.472;2023-01-24T13:15:05;9.93;66.02
76239;SHT30;65043;48.392;-4.472;2023-01-24T13:18:26;10.05;65.76
76239;SHT30;65043;48.392;-4.472;2023-01-24T13:20:41;10.16;65.64
76239;SHT30;65043;48.392;-4.472;2023-01-24T13:29:14;10.18;64.78
76239;SHT30;65043;48.392;-4.472;2023-01-24T13:34:21;10.18;64.78
76239;SHT30;65043;48.392;-4.472;2023-01-24T13:36:49;10.16;64.81
76239;SHT30;65043;48.392;-4.472;2023-01-24T13:39:36;10.25;64.88
76239;SHT30;65043;48.392;-4.472;2023-01-24T13:42:20;10.28;64.69
76239;SHT30;65043;48.392;-4.472;2023-01-24T13:44:45;10.29;64.64
76239;SHT30;65043;48.392;-4.472;2023-01-24T13:52:36;10.38;64.39
76239;SHT30;65043;48.392;-4.472;2023-01-24T13:55:08;10.48;64.63
76239;SHT30;65043;48.392;-4.472;2023-01-24T14:00:52;10.60;64.04
76239;SHT30;65043;48.392;-4.472;2023-01-24T14:03:22;10.66;63.71
76239;SHT30;65043;48.392;-4.472;2023-01-24T14:19:15;10.94;63.06
76239;SHT30;65043;48.392;-4.472;2023-01-24T14:21:54;10.97;62.89
76239;SHT30;65043;48.392;-4.472;2023-01-24T14:26:52;10.92;62.44
76239;SHT30;65043;48.392;-4.472;2023-01-24T14:29:18;10.81;62.56
76239;SHT30;65043;48.392;-4.472;2023-01-24T14:31:48;10.73;62.81
76239;SHT30;65043;48.392;-4.472;2023-01-24T14:34:30;10.70;62.89
76239;SHT30;65043;48.392;-4.472;2023-01-24T14:37:12;10.50;62.84
76239;SHT30;65043;48.392;-4.472;2023-01-24T14:39:41;10.48;63.51
76239;SHT30;65043;48.392;-4.472;2023-01-24T14:42:12;10.48;63.45
76239;SHT30;65043;48.392;-4.472;2023-01-24T14:44:41;10.49;63.36
76239;SHT30;65043;48.392;-4.472;2023-01-24T14:47:24;10.43;63.55
76239;SHT30;65043;48.392;-4.472;2023-01-24T14:50:00;10.38;63.88
76239;SHT30;65043;48.392;-4.472;2023-01-24T14:52:30;10.35;63.98
76239;SHT30;65043;48.392;-4.472;2023-01-24T14:55:11;10.36;64.03
76239;SHT30;65043;48.392;-4.472;2023-01-24T14:57:37;10.31;63.73
76239;SHT30;65043;48.392;-4.472;2023-01-24T15:02:28;10.21;64.29
76239;SHT30;65043;48.392;-4.472;2023-01-24T15:04:53;10.21;64.43
76239;SHT30;65043;48.392;-4.472;2023-01-24T15:07:19;10.15;64.64
76239;SHT30;65043;48.392;-4.472;2023-01-24T15:09:47;10.09;64.62
76239;SHT30;65043;48.392;-4.472;2023-01-24T15:12:29;10.02;64.74
76239;SHT30;65043;48.392;-4.472;2023-01-24T15:14:56;9.98;65.01
76239;SHT30;65043;48.392;-4.472;2023-01-24T15:17:28;9.95;65.10
76239;SHT30;65043;48.392;-4.472;2023-01-24T15:19:57;9.95;65.35
76239;SHT30;65043;48.392;-4.472;2023-01-24T15:22:26;9.95;65.37
76239;SHT30;65043;48.392;-4.472;2023-01-24T15:24:54;9.97;65.39
76239;SHT30;65043;48.392;-4.472;2023-01-24T15:29:49;10.02;65.50
76239;SHT30;65043;48.392;-4.472;2023-01-24T15:32:39;10.01;65.61
76239;SHT30;65043;48.392;-4.472;2023-01-24T15:35:52;10.04;65.47
76239;SHT30;65043;48.392;-4.472;2023-01-24T15:38:28;10.04;65.28
76239;SHT30;65043;48.392;-4.472;2023-01-24T15:41:18;9.99;65.43
76239;SHT30;65043;48.392;-4.472;2023-01-24T15:44:04;10.01;65.20
76239;SHT30;65043;48.392;-4.472;2023-01-24T15:46:33;10.06;64.80
76239;SHT30;65043;48.392;-4.472;2023-01-24T15:49:28;10.14;64.44
76239;SHT30;65043;48.392;-4.472;2023-01-24T15:54:36;10.09;64.38
76239;SHT30;65043;48.392;-4.472;2023-01-24T15:57:09;10.12;64.20
76239;SHT30;65043;48.392;-4.472;2023-01-24T15:59:42;10.08;64.23
76239;SHT30;65043;48.392;-4.472;2023-01-24T16:02:11;10.02;64.28
76239;SHT30;65043;48.392;-4.472;2023-01-24T16:04:37;10.05;64.34
76239;SHT30;65043;48.392;-4.472;2023-01-24T16:07:02;9.99;64.46
76239;SHT30;65043;48.392;-4.472;2023-01-24T16:09:28;9.94;64.61
76239;SHT30;65043;48.392;-4.472;2023-01-24T16:11:53;9.91;64.89
76239;SHT30;65043;48.392;-4.472;2023-01-24T16:14:21;9.87;65.04
76239;SHT30;65043;48.392;-4.472;2023-01-24T16:16:48;9.85;64.93
76239;SHT30;65043;48.392;-4.472;2023-01-24T16:19:18;9.85;64.85
76239;SHT30;65043;48.392;-4.472;2023-01-24T16:21:44;9.83;64.89
76239;SHT30;65043;48.392;-4.472;2023-01-24T16:24:10;9.81;64.91
76239;SHT30;65043;48.392;-4.472;2023-01-24T16:26:37;9.77;64.91
76239;SHT30;65043;48.392;-4.472;2023-01-24T16:29:11;9.75;65.03
76239;SHT30;65043;48.392;-4.472;2023-01-24T16:31:37;9.71;65.09
76239;SHT30;65043;48.392;-4.472;2023-01-24T16:34:02;9.70;65.10
76239;SHT30;65043;48.392;-4.472;2023-01-24T16:36:27;9.58;65.47
76239;SHT30;65043;48.392;-4.472;2023-01-24T16:38:53;9.57;65.68
76239;SHT30;65043;48.392;-4.472;2023-01-24T16:41:18;9.54;65.99
76239;SHT30;65043;48.392;-4.472;2023-01-24T16:43:43;9.51;65.54
76239;SHT30;65043;48.392;-4.472;2023-01-24T16:46:17;9.46;65.74
76239;SHT30;65043;48.392;-4.472;2023-01-24T16:48:43;9.40;65.91
76239;SHT30;65043;48.392;-4.472;2023-01-24T16:51:10;9.35;66.08
76239;SHT30;65043;48.392;-4.472;2023-01-24T16:53:35;9.29;66.33
76239;SHT30;65043;48.392;-4.472;2023-01-24T16:56:00;9.25;66.45
76239;SHT30;65043;48.392;-4.472;2023-01-24T16:58:26;9.20;66.54
76239;SHT30;65043;48.392;-4.472;2023-01-24T17:00:52;9.19;66.67
76239;SHT30;65043;48.392;-4.472;2023-01-24T17:03:17;9.15;66.75
76239;SHT30;65043;48.392;-4.472;2023-01-24T17:05:43;9.12;66.64
76239;SHT30;65043;48.392;-4.472;2023-01-24T17:08:12;9.11;66.79
76239;SHT30;65043;48.392;-4.472;2023-01-24T17:10:41;9.09;66.99
76239;SHT30;65043;48.392;-4.472;2023-01-24T17:13:08;9.08;67.15
76239;SHT30;65043;48.392;-4.472;2023-01-24T17:15:36;9.02;67.27
76239;SHT30;65043;48.392;-4.472;2023-01-24T17:18:02;9.02;67.36
76239;SHT30;65043;48.392;-4.472;2023-01-24T17:20:27;8.99;67.47
76239;SHT30;65043;48.392;-4.472;2023-01-24T17:22:53;8.98;67.64
76239;SHT30;65043;48.392;-4.472;2023-01-24T17:25:18;8.99;67.65
76239;SHT30;65043;48.392;-4.472;2023-01-24T17:27:43;8.93;67.73
76239;SHT30;65043;48.392;-4.472;2023-01-24T17:30:10;8.92;67.81
76239;SHT30;65043;48.392;-4.472;2023-01-24T17:32:35;8.89;67.96
76239;SHT30;65043;48.392;-4.472;2023-01-24T17:35:04;8.84;68.06
76239;SHT30;65043;48.392;-4.472;2023-01-24T17:37:30;8.81;68.18
76239;SHT30;65043;48.392;-4.472;2023-01-24T17:39:55;8.79;68.22
76239;SHT30;65043;48.392;-4.472;2023-01-24T17:42:21;8.78;68.46